Time;durP1;ratioP1;P1;durP2;ratioP2;P2;SDS_P1;SDS_P2;PMS_P1;PMS_P2;Temp;Humidity;BMP_temperature;BMP_pressure;BME280_temperature;BME280_humidity;BME280_pressure;Samples;Min_cycle;Max_cycle;Signal;HPM_P1;HPM_P2
2023/01/01 00:01:23;;;;;;;148.32;78.57;;;;;;;12.99;100.00;100585.44;4985739;28;20022;-94
2023/01/01 00:03:50;;;;;;;122.35;62.40;;;;;;;12.92;100.00;100588.28;4992625;28;20436;-92
2023/01/01 00:06:16;;;;;;;113.13;57.10;;;;;;;12.96;100.00;100580.63;5008929;28;20058;-93
2023/01/01 00:08:41;;;;;;;134.00;65.38;;;;;;;12.78;100.00;100563.78;4990253;28;20076;-93
2023/01/01 00:11:09;;;;;;;91.63;47.03;;;;;;;12.79;100.00;100554.13;4994751;28;20478;-93
2023/01/01 00:13:37;;;;;;;126.28;58.28;;;;;;;12.67;100.00;100546.13;4991564;28;20031;-93
2023/01/01 00:16:06;;;;;;;111.65;52.45;;;;;;;12.80;100.00;100578.22;4992559;28;20540;-93
2023/01/01 00:18:32;;;;;;;106.45;49.60;;;;;;;12.84;100.00;100561.38;4998361;28;20122;-93
2023/01/01 00:21:06;;;;;;;104.75;47.20;;;;;;;12.70;100.00;100556.53;4993938;28;20462;-92
2023/01/01 00:23:33;;;;;;;106.60;54.08;;;;;;;12.69;100.00;100563.38;4990745;28;20058;-93
2023/01/01 00:25:59;;;;;;;89.18;42.13;;;;;;;12.87;100.00;100580.22;5006628;28;20023;-94
2023/01/01 00:28:25;;;;;;;98.75;49.13;;;;;;;12.64;100.00;100558.16;4985510;28;20045;-92
2023/01/01 00:30:52;;;;;;;95.57;48.08;;;;;;;12.73;100.00;100538.09;4995721;28;20053;-94
2023/01/01 00:33:18;;;;;;;74.10;38.22;;;;;;;12.89;100.00;100568.59;4989820;28;20023;-94
2023/01/01 00:35:43;;;;;;;80.18;39.53;;;;;;;12.67;100.00;100562.97;4995318;28;20018;-93
2023/01/01 00:38:09;;;;;;;79.68;40.00;;;;;;;12.80;100.00;100550.13;4992639;28;20089;-94
2023/01/01 00:40:34;;;;;;;68.80;34.13;;;;;;;12.69;100.00;100557.75;4985598;28;20459;-93
2023/01/01 00:43:00;;;;;;;72.78;34.03;;;;;;;12.72;100.00;100553.34;5006599;28;20098;-94
2023/01/01 00:45:25;;;;;;;83.40;36.25;;;;;;;12.72;100.00;100540.09;4993104;28;20100;-95
2023/01/01 00:47:52;;;;;;;69.75;34.17;;;;;;;12.84;100.00;100546.50;4994023;28;20025;-94
2023/01/01 00:50:19;;;;;;;73.20;34.38;;;;;;;12.73;100.00;100560.56;4997241;28;20034;-95
2023/01/01 00:52:44;;;;;;;81.25;37.95;;;;;;;12.74;100.00;100551.75;4994357;28;20438;-94
2023/01/01 00:55:10;;;;;;;82.50;37.40;;;;;;;12.84;100.00;100550.16;4976306;28;20113;-93
2023/01/01 00:57:35;;;;;;;76.95;37.50;;;;;;;12.93;100.00;100573.00;4980969;28;20034;-93
2023/01/01 01:00:01;;;;;;;74.20;33.03;;;;;;;12.93;99.41;100558.97;4977386;28;20093;-94
2023/01/01 01:02:27;;;;;;;70.28;32.35;;;;;;;13.00;100.00;100569.38;4976962;28;20038;-94
2023/01/01 01:04:52;;;;;;;66.47;32.25;;;;;;;13.15;100.00;100582.22;5002122;28;20050;-94
2023/01/01 01:07:18;;;;;;;64.00;31.05;;;;;;;12.92;100.00;100551.75;4993485;28;20037;-94
2023/01/01 01:09:43;;;;;;;65.60;29.50;;;;;;;12.96;99.97;100569.38;4985875;28;20041;-94
2023/01/01 01:12:09;;;;;;;70.47;31.50;;;;;;;13.06;98.06;100544.50;4983528;28;20085;-95
2023/01/01 01:14:34;;;;;;;63.92;30.70;;;;;;;13.02;98.39;100536.88;4983199;28;20030;-93
2023/01/01 01:17:00;;;;;;;66.00;31.33;;;;;;;12.95;100.00;100539.69;4983056;28;20026;-95
2023/01/01 01:19:26;;;;;;;74.15;34.90;;;;;;;13.19;97.73;100535.22;4985908;28;20114;-95
2023/01/01 01:21:51;;;;;;;64.55;30.55;;;;;;;13.43;95.33;100566.56;4979393;28;20486;-94
2023/01/01 01:24:17;;;;;;;67.78;30.58;;;;;;;13.29;97.47;100563.78;4980237;28;20403;-94
2023/01/01 01:26:42;;;;;;;73.55;26.77;;;;;;;13.49;93.73;100576.19;4975012;28;20033;-93
2023/01/01 01:29:08;;;;;;;57.10;28.08;;;;;;;13.46;95.00;100557.31;4984708;28;20034;-94
2023/01/01 01:31:34;;;;;;;71.43;29.75;;;;;;;13.34;94.21;100549.28;4986718;28;20026;-93
2023/01/01 01:34:00;;;;;;;69.22;31.95;;;;;;;13.42;93.40;100550.88;4981766;28;20027;-94
2023/01/01 01:36:26;;;;;;;69.82;29.45;;;;;;;13.39;97.37;100562.94;4984567;28;20694;-92
2023/01/01 01:38:52;;;;;;;61.88;27.58;;;;;;;13.30;95.52;100554.13;4984163;28;20498;-91
2023/01/01 01:41:21;;;;;;;58.22;25.65;;;;;;;13.25;94.91;100566.53;4983599;28;20368;-91
2023/01/01 01:43:50;;;;;;;64.43;31.15;;;;;;;13.21;97.87;100580.59;4969493;28;20168;-91
2023/01/01 01:46:28;;;;;;;67.38;28.02;;;;;;;13.15;97.45;100582.22;5002336;28;20019;-91
2023/01/01 01:48:57;;;;;;;65.22;26.70;;;;;;;13.28;99.67;100612.72;5002052;28;20081;-91
2023/01/01 01:51:35;;;;;;;67.47;27.73;;;;;;;13.10;100.00;100602.28;4987674;28;20907;-91
2023/01/01 01:54:06;;;;;;;55.25;21.13;;;;;;;13.19;100.00;100597.06;4992581;28;20037;-91
2023/01/01 01:56:44;;;;;;;51.45;22.88;;;;;;;13.16;100.00;100602.72;4986293;28;20035;-91
2023/01/01 01:59:12;;;;;;;63.38;23.95;;;;;;;12.88;100.00;100611.91;4988990;28;20312;-92
2023/01/01 02:01:38;;;;;;;53.03;21.23;;;;;;;12.91;100.00;100611.94;4987005;28;20088;-92
2023/01/01 02:04:04;;;;;;;48.65;19.10;;;;;;;13.02;100.00;100637.22;4988112;28;20034;-91
2023/01/01 02:06:31;;;;;;;46.05;20.02;;;;;;;12.96;100.00;100613.53;4989118;28;20049;-91
2023/01/01 02:09:00;;;;;;;57.08;20.83;;;;;;;12.91;100.00;100581.03;4996344;28;20029;-91
2023/01/01 02:11:28;;;;;;;38.47;16.90;;;;;;;13.04;99.48;100617.94;4984354;28;20027;-91
2023/01/01 02:13:56;;;;;;;40.47;14.35;;;;;;;12.97;98.25;100599.09;5003468;28;20038;-91
2023/01/01 02:16:27;;;;;;;42.65;14.90;;;;;;;13.07;100.00;100603.13;4989392;28;20054;-92
2023/01/01 02:19:26;;;;;;;48.30;16.98;;;;;;;12.99;99.22;100618.38;5002278;28;20030;-90
2023/01/01 02:22:27;;;;;;;42.72;13.10;;;;;;;13.05;96.17;100602.72;4978958;28;20475;-91
2023/01/01 02:25:06;;;;;;;30.77;10.65;;;;;;;13.40;92.70;100615.16;4983292;28;20041;-91
2023/01/01 02:27:50;;;;;;;28.98;10.35;;;;;;;13.40;95.01;100630.00;4982443;28;20068;-91
2023/01/01 02:30:17;;;;;;;36.00;11.75;;;;;;;13.17;100.00;100612.72;5001663;28;20037;-91
2023/01/01 02:32:50;;;;;;;32.33;11.93;;;;;;;13.36;93.63;100614.34;4986871;28;20050;-92
2023/01/01 02:35:37;;;;;;;28.23;8.85;;;;;;;13.20;93.58;100595.88;4986847;28;20988;-92
2023/01/01 02:38:21;;;;;;;22.75;8.48;;;;;;;13.33;93.37;100620.78;4982810;28;20041;-91
2023/01/01 02:40:51;;;;;;;26.13;9.63;;;;;;;13.18;95.20;100623.56;5003775;28;20030;-91
2023/01/01 02:43:17;;;;;;;24.48;10.85;;;;;;;13.27;97.47;100616.75;4988790;28;20036;-91
2023/01/01 02:45:42;;;;;;;25.25;9.60;;;;;;;13.18;93.16;100603.91;4986804;28;20113;-91
2023/01/01 02:48:41;;;;;;;20.63;7.28;;;;;;;13.28;94.44;100641.66;4983793;28;20557;-92
2023/01/01 02:51:15;;;;;;;22.40;8.43;;;;;;;13.44;93.68;100648.88;5001405;28;20030;-91
2023/01/01 02:54:09;;;;;;;20.48;8.20;;;;;;;13.27;92.63;100613.94;4985294;28;20034;-91
2023/01/01 02:56:46;;;;;;;26.42;8.40;;;;;;;13.39;93.09;100631.22;4981667;28;20057;-91
2023/01/01 03:02:29;;;;;;;24.88;9.02;;;;;;;13.36;96.23;100619.97;4983014;28;20112;-91
2023/01/01 03:05:11;;;;;;;33.42;8.55;;;;;;;13.36;93.78;100626.38;4985372;28;20070;-91
2023/01/01 03:08:04;;;;;;;24.63;8.55;;;;;;;13.32;90.70;100605.91;4989048;28;20042;-91
2023/01/01 03:10:49;;;;;;;22.15;8.07;;;;;;;13.49;91.10;100646.47;5007059;28;20051;-91
2023/01/01 03:13:36;;;;;;;15.77;5.18;;;;;;;13.61;92.24;100631.97;4988582;28;20455;-91
2023/01/01 03:16:11;;;;;;;23.42;7.07;;;;;;;13.26;93.90;100615.13;5005031;28;20054;-91
2023/01/01 03:18:45;;;;;;;19.70;6.65;;;;;;;13.34;91.54;100602.69;4985486;28;20305;-92
2023/01/01 03:21:15;;;;;;;25.67;8.55;;;;;;;13.30;90.81;100630.00;4976712;28;20030;-92
2023/01/01 03:23:48;;;;;;;23.63;6.78;;;;;;;13.30;90.61;100621.56;4989440;28;20034;-91
2023/01/01 03:26:16;;;;;;;26.65;6.45;;;;;;;13.27;90.24;100605.50;4987623;28;20053;-92
2023/01/01 03:28:54;;;;;;;17.95;5.88;;;;;;;13.31;90.14;100632.44;4987112;28;20113;-91
2023/01/01 03:31:24;;;;;;;20.50;5.95;;;;;;;13.30;88.37;100624.38;5004871;28;20030;-92
2023/01/01 03:34:21;;;;;;;22.08;6.88;;;;;;;13.36;91.64;100643.25;4988731;28;20026;-92
2023/01/01 03:36:52;;;;;;;16.77;5.95;;;;;;;13.10;90.70;100605.09;4981777;28;20046;-92
2023/01/01 03:39:26;;;;;;;26.10;6.35;;;;;;;13.26;91.67;100649.69;5000129;28;20038;-91
2023/01/01 03:42:15;;;;;;;19.45;7.78;;;;;;;13.25;90.78;100647.25;4981406;28;20475;-92
2023/01/01 03:44:46;;;;;;;24.00;6.38;;;;;;;13.37;91.04;100655.31;4999164;28;20174;-92
2023/01/01 03:47:13;;;;;;;18.88;6.50;;;;;;;13.23;89.82;100634.41;4983495;28;20037;-92
2023/01/01 03:49:38;;;;;;;28.15;5.75;;;;;;;13.21;92.85;100645.25;4981472;28;20034;-91
2023/01/01 03:52:15;;;;;;;26.77;6.72;;;;;;;13.30;90.05;100652.50;4984706;28;20041;-92
2023/01/01 03:55:11;;;;;;;21.42;5.68;;;;;;;13.23;91.65;100625.97;4982481;28;20072;-91
2023/01/01 03:57:39;;;;;;;17.73;5.60;;;;;;;13.44;89.58;100677.00;4983747;28;20617;-92
2023/01/01 04:00:15;;;;;;;20.77;6.45;;;;;;;13.32;91.04;100676.19;4998218;28;20026;-90
2023/01/01 04:03:07;;;;;;;18.38;6.25;;;;;;;13.10;94.48;100658.50;4982127;28;20034;-91
2023/01/01 04:05:41;;;;;;;23.73;5.97;;;;;;;13.22;91.62;100665.75;4984853;28;20541;-91
2023/01/01 04:08:08;;;;;;;17.02;6.22;;;;;;;13.27;92.66;100645.66;4982344;28;20486;-90
2023/01/01 04:10:37;;;;;;;20.60;5.35;;;;;;;13.18;91.86;100651.69;4985285;28;20077;-90
2023/01/01 04:13:04;;;;;;;20.25;5.22;;;;;;;13.20;91.90;100632.41;4981545;28;20034;-92
2023/01/01 04:15:31;;;;;;;21.25;5.40;;;;;;;13.29;89.29;100625.59;4998051;28;20199;-90
2023/01/01 04:17:56;;;;;;;24.75;5.03;;;;;;;13.29;90.02;100660.13;4987373;28;20057;-90
2023/01/01 04:20:22;;;;;;;27.25;6.53;;;;;;;13.14;93.80;100664.94;4987274;28;20034;-91
2023/01/01 04:22:48;;;;;;;12.13;4.45;;;;;;;13.25;94.90;100683.81;4981301;28;20069;-90
2023/01/01 04:25:14;;;;;;;14.63;5.28;;;;;;;13.28;90.64;100685.78;5004378;28;20493;-91
2023/01/01 04:27:40;;;;;;;12.95;4.10;;;;;;;13.38;90.45;100679.41;4980809;28;20031;-92
2023/01/01 04:30:09;;;;;;;26.15;5.00;;;;;;;13.26;89.90;100655.31;4978713;28;20111;-91
2023/01/01 04:32:34;;;;;;;23.00;4.18;;;;;;;13.36;89.58;100684.63;5000616;28;20034;-90
2023/01/01 04:35:00;;;;;;;13.60;3.92;;;;;;;13.35;89.87;100663.34;4983631;28;20099;-92
2023/01/01 04:37:26;;;;;;;19.55;6.15;;;;;;;13.34;88.20;100684.22;4983898;28;20022;-92
2023/01/01 04:39:52;;;;;;;14.60;4.93;;;;;;;13.27;92.11;100717.94;4981889;28;20034;-91
2023/01/01 04:42:18;;;;;;;14.90;3.30;;;;;;;13.18;92.41;100688.22;4990316;28;20626;-91
2023/01/01 04:44:43;;;;;;;11.45;3.75;;;;;;;13.15;91.09;100705.84;4982679;28;20128;-91
2023/01/01 04:47:09;;;;;;;16.85;5.10;;;;;;;13.19;91.22;100686.19;4987295;28;20386;-91
2023/01/01 04:49:35;;;;;;;12.40;3.60;;;;;;;13.01;91.85;100677.78;4985919;28;20447;-91
2023/01/01 04:52:01;;;;;;;19.40;4.05;;;;;;;13.03;93.75;100669.75;4991379;28;20030;-90
2023/01/01 04:54:26;;;;;;;16.20;4.05;;;;;;;13.14;91.20;100707.06;4985524;28;20057;-90
2023/01/01 04:56:52;;;;;;;20.17;3.85;;;;;;;13.05;93.11;100692.63;4992383;28;20504;-90
2023/01/01 04:59:17;;;;;;;10.68;3.13;;;;;;;12.98;95.24;100706.66;4991188;28;20855;-89
2023/01/01 05:01:42;;;;;;;11.07;3.45;;;;;;;12.93;91.10;100737.94;4992695;28;20051;-91
2023/01/01 05:04:11;;;;;;;10.85;3.28;;;;;;;12.81;92.31;100725.88;4982769;28;20035;-90
2023/01/01 05:06:37;;;;;;;7.45;2.85;;;;;;;12.91;88.97;100746.78;4992770;28;20414;-89
2023/01/01 05:09:03;;;;;;;8.82;3.40;;;;;;;12.79;88.15;100745.13;4993576;28;20030;-90
2023/01/01 05:11:29;;;;;;;15.77;3.22;;;;;;;12.86;89.85;100768.81;4990190;28;20030;-90
2023/01/01 05:13:58;;;;;;;10.52;2.30;;;;;;;12.69;89.84;100745.91;4991029;28;20018;-90
2023/01/01 05:16:25;;;;;;;9.20;1.85;;;;;;;12.86;92.63;100780.88;4991124;28;20552;-89
2023/01/01 05:18:51;;;;;;;13.40;3.40;;;;;;;12.89;87.61;100771.66;5011839;28;20030;-90
2023/01/01 05:21:23;;;;;;;10.77;3.72;;;;;;;12.76;90.67;100771.19;4993543;28;20061;-90
2023/01/01 05:23:53;;;;;;;6.28;2.42;;;;;;;12.51;89.83;100768.28;4988182;28;20037;-90
2023/01/01 05:26:20;;;;;;;5.65;2.30;;;;;;;12.77;89.63;100786.84;4993195;28;20022;-90
2023/01/01 05:28:46;;;;;;;11.02;2.33;;;;;;;12.52;93.48;100769.09;4982210;28;20113;-90
2023/01/01 05:31:15;;;;;;;9.98;2.40;;;;;;;12.68;87.43;100794.84;4991479;28;20474;-90
2023/01/01 05:33:41;;;;;;;6.88;3.00;;;;;;;12.44;90.92;100759.84;5001455;28;20198;-91
2023/01/01 05:36:08;;;;;;;7.97;2.53;;;;;;;12.59;86.44;100775.56;4991291;28;20084;-90
2023/01/01 05:38:34;;;;;;;9.15;2.38;;;;;;;12.58;88.11;100802.00;4988620;28;20026;-89
2023/01/01 05:41:06;;;;;;;7.15;2.72;;;;;;;12.68;90.45;100797.66;5005183;28;20375;-90
2023/01/01 05:43:31;;;;;;;9.77;2.88;;;;;;;12.53;90.32;100779.94;4989418;28;20045;-90
2023/01/01 05:46:04;;;;;;;10.70;2.40;;;;;;;12.41;93.11;100786.69;4985620;28;20038;-91
2023/01/01 05:48:30;;;;;;;9.80;2.95;;;;;;;12.55;92.10;100802.00;4989230;28;20052;-90
2023/01/01 05:51:11;;;;;;;16.20;3.38;;;;;;;12.51;95.08;100801.19;4997823;28;20033;-90
2023/01/01 05:53:37;;;;;;;13.57;3.15;;;;;;;12.42;95.64;100815.56;4986438;28;20037;-90
2023/01/01 05:56:06;;;;;;;14.52;4.68;;;;;;;12.53;92.73;100826.88;4988489;28;20030;-90
2023/01/01 05:58:33;;;;;;;26.52;5.70;;;;;;;12.30;94.36;100829.94;4992379;28;20394;-90
2023/01/01 06:01:06;;;;;;;12.23;4.05;;;;;;;12.38;94.71;100831.59;4986166;28;20442;-90
2023/01/01 06:03:31;;;;;;;15.73;4.30;;;;;;;12.34;93.37;100814.72;4992184;28;20624;-90
2023/01/01 06:05:56;;;;;;;12.30;3.10;;;;;;;12.41;91.88;100828.78;4989548;28;20054;-89
2023/01/01 06:08:22;;;;;;;13.75;3.08;;;;;;;12.38;95.51;100835.19;4987969;28;20068;-90
2023/01/01 06:10:47;;;;;;;26.17;4.18;;;;;;;12.33;95.32;100837.56;5007631;28;20113;-89
2023/01/01 06:13:12;;;;;;;20.23;5.00;;;;;;;12.16;94.06;100837.06;4988943;28;20037;-89
2023/01/01 06:15:38;;;;;;;16.00;4.20;;;;;;;12.29;93.90;100845.97;4990641;28;20034;-89
2023/01/01 06:18:03;;;;;;;21.90;3.33;;;;;;;12.34;89.74;100858.81;4987407;28;20068;-90
2023/01/01 06:20:32;;;;;;;10.20;3.15;;;;;;;12.28;92.65;100866.00;4989582;28;20120;-91
2023/01/01 06:22:57;;;;;;;13.43;3.40;;;;;;;12.19;92.61;100852.31;4986883;28;20033;-89
2023/01/01 06:25:22;;;;;;;12.63;3.50;;;;;;;12.12;91.49;100857.84;4986309;28;20394;-90
2023/01/01 06:27:48;;;;;;;19.33;4.03;;;;;;;12.26;90.75;100880.41;4984144;28;20117;-90
2023/01/01 06:30:13;;;;;;;10.43;2.95;;;;;;;12.06;89.49;100859.41;5000412;28;20097;-89
2023/01/01 06:32:39;;;;;;;31.60;4.15;;;;;;;12.29;87.81;100887.25;4985547;28;20038;-89
2023/01/01 06:35:04;;;;;;;10.50;3.63;;;;;;;12.23;92.95;100894.41;4998030;28;20033;-90
2023/01/01 06:37:30;;;;;;;22.20;4.28;;;;;;;12.19;92.20;100905.63;4996780;28;20030;-90
2023/01/01 06:39:55;;;;;;;12.80;3.00;;;;;;;11.93;95.39;100876.56;5001936;28;20022;-89
2023/01/01 06:42:20;;;;;;;13.70;3.85;;;;;;;12.05;90.50;100891.47;4985070;28;20498;-90
2023/01/01 06:44:46;;;;;;;11.85;3.22;;;;;;;12.13;92.61;100893.94;4983349;28;20376;-89
2023/01/01 06:47:11;;;;;;;32.38;5.10;;;;;;;12.00;90.59;100895.44;4981392;28;20042;-89
2023/01/01 06:49:37;;;;;;;15.13;3.40;;;;;;;12.03;94.41;100907.88;4983447;28;20030;-90
2023/01/01 06:52:02;;;;;;;14.63;3.47;;;;;;;12.20;88.03;100938.09;4985328;28;20389;-90
2023/01/01 06:54:30;;;;;;;14.20;4.03;;;;;;;12.09;93.33;100926.78;4980110;28;20824;-90
2023/01/01 06:56:55;;;;;;;16.15;3.20;;;;;;;11.95;94.34;100910.63;4981625;28;20454;-90
2023/01/01 06:59:21;;;;;;;21.95;3.60;;;;;;;12.03;94.61;100919.91;4997470;28;20029;-89
2023/01/01 07:01:46;;;;;;;18.50;3.47;;;;;;;12.13;93.14;100943.66;4984275;28;20045;-90
2023/01/01 07:04:14;;;;;;;20.55;3.75;;;;;;;12.04;90.19;100946.78;4994751;28;20038;-89
2023/01/01 07:06:42;;;;;;;21.08;4.47;;;;;;;11.94;90.47;100936.25;4977960;28;20077;-90
2023/01/01 07:09:08;;;;;;;16.90;4.60;;;;;;;12.02;92.05;100953.94;4995847;28;20601;-90
2023/01/01 07:11:34;;;;;;;18.80;3.15;;;;;;;12.02;91.21;100959.56;4977330;28;20033;-90
2023/01/01 07:14:00;;;;;;;18.60;3.15;;;;;;;11.88;91.17;100944.22;4994666;28;20117;-90
2023/01/01 07:16:26;;;;;;;12.38;3.28;;;;;;;11.92;93.05;100958.28;4982270;28;20177;-89
2023/01/01 07:18:51;;;;;;;16.95;2.75;;;;;;;11.90;90.38;100961.47;4999801;28;20406;-91
2023/01/01 07:21:52;;;;;;;24.67;3.83;;;;;;;12.00;92.72;100985.22;4979272;28;20034;-90
2023/01/01 07:24:18;;;;;;;16.98;2.90;;;;;;;11.92;90.07;100973.09;4974942;28;20046;-90
2023/01/01 07:26:44;;;;;;;15.25;4.15;;;;;;;11.88;92.96;100977.03;4976550;28;20030;-89
2023/01/01 07:29:11;;;;;;;22.48;3.63;;;;;;;12.00;90.24;100991.63;4980761;28;20096;-89
2023/01/01 07:31:39;;;;;;;13.27;3.85;;;;;;;11.73;89.89;100965.66;4981279;28;20108;-91
2023/01/01 07:34:08;;;;;;;16.63;3.17;;;;;;;11.80;95.08;100993.81;4988051;28;20394;-90
2023/01/01 07:36:33;;;;;;;29.95;4.45;;;;;;;11.85;93.08;101006.66;4992530;28;20038;-89
2023/01/01 07:38:59;;;;;;;28.17;3.30;;;;;;;11.84;93.53;101030.28;4979275;28;20406;-90
2023/01/01 07:41:24;;;;;;;22.60;3.60;;;;;;;11.79;97.46;101008.19;4982978;28;20376;-89
2023/01/01 07:43:50;;;;;;;18.90;4.05;;;;;;;11.84;96.48;101024.66;4980485;28;20085;-90
2023/01/01 07:46:17;;;;;;;15.35;3.42;;;;;;;11.82;90.65;101020.63;4998257;28;20058;-89
2023/01/01 07:48:43;;;;;;;15.80;3.28;;;;;;;11.86;92.05;101019.50;4975403;28;20085;-90
2023/01/01 07:51:09;;;;;;;19.77;2.70;;;;;;;11.75;90.24;101012.97;4979083;28;20022;-90
2023/01/01 07:53:34;;;;;;;18.30;3.03;;;;;;;11.69;91.83;101025.69;5000602;28;20433;-89
2023/01/01 07:56:00;;;;;;;26.77;4.30;;;;;;;11.76;94.89;101053.81;4984975;28;20036;-90
2023/01/01 07:58:25;;;;;;;18.65;3.22;;;;;;;11.74;90.74;101067.41;4988462;28;20054;-89
2023/01/01 08:00:50;;;;;;;22.48;3.70;;;;;;;11.75;92.79;101085.88;5002247;28;20037;-90
2023/01/01 08:03:16;;;;;;;23.27;4.20;;;;;;;11.76;92.43;101073.44;5004930;28;20506;-89
2023/01/01 08:05:42;;;;;;;22.23;4.18;;;;;;;11.66;94.02;101071.31;4990672;28;20074;-89
2023/01/01 08:08:08;;;;;;;20.58;3.20;;;;;;;11.46;94.00;101037.81;4983106;28;20394;-89
2023/01/01 08:10:33;;;;;;;32.28;3.45;;;;;;;11.57;92.32;101058.41;4984777;28;20022;-90
2023/01/01 08:13:04;;;;;;;17.42;3.58;;;;;;;11.75;93.92;101097.09;4999414;28;20026;-89
2023/01/01 08:15:30;;;;;;;22.40;3.28;;;;;;;11.51;97.71;101082.34;4999281;28;20072;-89
2023/01/01 08:18:00;;;;;;;24.88;5.00;;;;;;;11.42;93.06;101087.41;5003366;28;20026;-90
2023/01/01 08:20:27;;;;;;;21.63;3.30;;;;;;;11.63;94.42;101120.53;4988316;28;20034;-90
2023/01/01 08:22:53;;;;;;;21.10;3.97;;;;;;;11.50;92.39;101097.53;4985890;28;20066;-89
2023/01/01 08:25:19;;;;;;;20.60;3.92;;;;;;;11.58;90.94;101132.91;5004711;28;20482;-89
2023/01/01 08:27:44;;;;;;;21.95;3.17;;;;;;;11.47;91.44;101126.34;4985475;28;20109;-89
2023/01/01 08:30:12;;;;;;;24.13;3.72;;;;;;;11.52;93.79;101145.63;4988343;28;20410;-89
2023/01/01 08:32:38;;;;;;;14.68;3.15;;;;;;;11.46;93.28;101144.34;4987255;28;20410;-89
2023/01/01 08:35:04;;;;;;;20.35;3.80;;;;;;;11.40;94.94;101140.25;4980820;28;20037;-90
2023/01/01 08:37:29;;;;;;;15.32;3.80;;;;;;;11.30;92.37;101138.91;4979833;28;20482;-90
2023/01/01 08:39:55;;;;;;;16.67;2.75;;;;;;;11.33;94.68;101148.53;4981336;28;20054;-89
2023/01/01 08:42:20;;;;;;;17.08;3.58;;;;;;;11.46;97.82;101152.75;4984521;28;20113;-89
2023/01/01 08:44:46;;;;;;;9.05;2.10;;;;;;;11.50;93.29;101176.03;4991031;28;20490;-88
2023/01/01 08:47:23;;;;;;;18.52;4.05;;;;;;;11.30;92.31;101138.91;4978343;28;20029;-89
2023/01/01 08:49:49;;;;;;;29.67;2.90;;;;;;;11.32;93.89;101153.34;4971341;28;20085;-90
2023/01/01 08:52:14;;;;;;;13.25;2.88;;;;;;;11.29;94.65;101158.88;4981305;28;20438;-89
2023/01/01 08:54:40;;;;;;;23.25;3.33;;;;;;;11.28;92.30;101162.88;4984775;28;20089;-90
2023/01/01 08:57:06;;;;;;;19.50;3.78;;;;;;;11.39;93.26;101169.47;5000874;28;20053;-89
2023/01/01 08:59:31;;;;;;;25.38;3.95;;;;;;;11.34;93.38;101173.41;4989492;28;20066;-89
2023/01/01 09:01:58;;;;;;;10.88;3.95;;;;;;;11.26;92.65;101170.84;4977868;28;20181;-90
2023/01/01 09:04:24;;;;;;;19.40;4.15;;;;;;;11.15;95.44;101165.06;4982452;28;20125;-89
2023/01/01 09:06:49;;;;;;;11.65;2.58;;;;;;;11.21;93.38;101179.56;4997936;28;20125;-88
2023/01/01 09:09:14;;;;;;;21.67;4.13;;;;;;;11.31;94.64;101196.56;4992985;28;20394;-89
2023/01/01 09:11:52;;;;;;;24.42;2.70;;;;;;;11.23;94.46;101182.81;4986790;28;20037;-90
2023/01/01 09:14:19;;;;;;;18.42;3.28;;;;;;;11.29;97.02;101193.31;5004826;28;20038;-90
2023/01/01 09:16:44;;;;;;;19.85;4.28;;;;;;;11.28;92.47;101204.91;4984411;28;20089;-89
2023/01/01 09:19:10;;;;;;;13.05;3.45;;;;;;;11.30;98.32;101191.31;5000790;28;20038;-89
2023/01/01 09:21:35;;;;;;;18.02;2.67;;;;;;;11.33;92.28;101205.41;4990629;28;20033;-89
2023/01/01 09:24:00;;;;;;;26.33;2.72;;;;;;;11.31;92.52;101212.56;4984612;28;20033;-90
2023/01/01 09:26:26;;;;;;;28.88;3.58;;;;;;;11.39;92.12;101222.72;4984682;28;20053;-90
2023/01/01 09:28:51;;;;;;;17.27;3.20;;;;;;;11.23;92.63;101205.22;4985759;28;20042;-89
2023/01/01 09:31:17;;;;;;;26.73;3.45;;;;;;;11.21;94.35;101193.56;4985849;28;20034;-90
2023/01/01 09:33:42;;;;;;;17.05;3.08;;;;;;;11.36;97.62;101215.03;4995330;28;20506;-88
2023/01/01 09:36:29;;;;;;;19.38;3.85;;;;;;;11.31;97.25;101199.34;4986519;28;21606;-89
2023/01/01 09:38:55;;;;;;;14.43;2.50;;;;;;;11.35;93.41;101207.84;5000164;28;20027;-88
2023/01/01 09:41:33;;;;;;;19.70;4.53;;;;;;;11.47;95.97;101218.84;4984191;28;20037;-89
2023/01/01 09:44:13;;;;;;;22.48;3.35;;;;;;;11.45;93.46;101214.78;5002321;28;20057;-90
2023/01/01 09:46:38;;;;;;;10.65;2.60;;;;;;;11.45;93.32;101193.19;4982269;28;20034;-89
2023/01/01 09:49:30;;;;;;;12.25;2.67;;;;;;;11.41;91.38;101189.53;5002335;28;20037;-89
2023/01/01 09:52:00;;;;;;;15.52;2.55;;;;;;;11.33;94.15;101190.59;4970225;28;20499;-88
2023/01/01 09:54:35;;;;;;;21.85;4.57;;;;;;;11.54;94.01;101226.56;4990948;28;20041;-89
2023/01/01 09:57:05;;;;;;;20.02;2.80;;;;;;;11.63;94.12;101229.91;4999242;28;20048;-89
2023/01/01 09:59:31;;;;;;;15.68;3.00;;;;;;;11.60;89.17;101237.06;4984205;28;20034;-90
2023/01/01 10:02:10;;;;;;;17.83;3.35;;;;;;;11.46;89.64;101219.22;4983471;28;20042;-89
2023/01/01 10:04:57;;;;;;;21.30;3.65;;;;;;;11.55;91.78;101226.19;4991761;28;20077;-89
2023/01/01 10:07:29;;;;;;;11.57;3.03;;;;;;;11.48;91.50;101228.88;4994006;28;20026;-89
2023/01/01 10:10:03;;;;;;;30.98;5.03;;;;;;;11.62;95.13;101221.88;4995715;28;20100;-90
2023/01/01 10:12:41;;;;;;;21.92;4.00;;;;;;;11.59;90.17;101232.66;4996753;28;20113;-89
2023/01/01 10:15:14;;;;;;;23.67;3.70;;;;;;;11.62;91.28;101242.31;4983228;28;20160;-89
2023/01/01 10:17:45;;;;;;;25.45;3.03;;;;;;;11.60;94.18;101248.28;4994699;28;20495;-88
2023/01/01 10:20:20;;;;;;;14.40;3.10;;;;;;;11.59;94.81;101241.06;4997026;28;20114;-89
2023/01/01 10:22:51;;;;;;;20.33;3.72;;;;;;;11.44;94.81;101216.78;4998063;28;20038;-89
2023/01/01 10:25:29;;;;;;;21.52;3.28;;;;;;;11.62;95.37;101252.72;4980921;28;20037;-89
2023/01/01 10:28:01;;;;;;;19.10;3.85;;;;;;;11.60;91.17;101222.25;4991596;28;20032;-89
2023/01/01 10:30:28;;;;;;;21.88;2.88;;;;;;;11.69;93.14;101250.03;4978630;28;21546;-88
2023/01/01 10:32:55;;;;;;;12.68;2.92;;;;;;;11.66;92.39;101251.59;4979174;28;20052;-89
2023/01/01 10:35:29;;;;;;;22.38;3.15;;;;;;;11.63;90.94;101262.75;4983832;28;20372;-88
2023/01/01 10:37:57;;;;;;;17.88;3.50;;;;;;;11.56;92.03;101264.25;4989376;28;20026;-88
2023/01/01 10:40:28;;;;;;;38.90;4.60;;;;;;;11.50;93.00;101243.31;4987175;28;20519;-90
2023/01/01 10:42:56;;;;;;;28.95;3.60;;;;;;;11.47;93.70;101237.63;5004498;28;20288;-89
2023/01/01 10:45:38;;;;;;;24.13;4.97;;;;;;;11.58;91.42;101239.44;5002316;28;20038;-90
2023/01/01 10:48:26;;;;;;;13.18;2.75;;;;;;;11.55;95.73;101225.34;4984866;28;20026;-89
2023/01/01 10:50:56;;;;;;;35.38;5.47;;;;;;;11.69;92.51;101227.59;5004369;28;20042;-89
2023/01/01 10:53:35;;;;;;;20.65;3.55;;;;;;;11.73;92.63;101245.28;4980058;28;20076;-89
2023/01/01 10:56:15;;;;;;;20.40;3.78;;;;;;;11.69;92.97;101231.19;4981256;28;20105;-89
2023/01/01 10:58:45;;;;;;;23.70;3.78;;;;;;;11.82;91.85;101219.78;4999554;28;20266;-89
2023/01/01 11:01:21;;;;;;;32.35;5.07;;;;;;;11.78;92.85;101214.94;4987692;28;20041;-90
2023/01/01 11:04:06;;;;;;;23.15;3.47;;;;;;;11.83;92.33;101224.19;4988897;28;20485;-90
2023/01/01 11:06:37;;;;;;;27.15;3.75;;;;;;;11.91;93.14;101226.75;4994646;28;20062;-89
2023/01/01 11:09:25;;;;;;;24.35;4.97;;;;;;;11.97;90.90;101239.28;4989458;28;20391;-89
2023/01/01 11:12:02;;;;;;;26.33;4.13;;;;;;;12.06;90.81;101260.63;4985261;28;20509;-88
2023/01/01 11:14:37;;;;;;;23.25;3.75;;;;;;;12.10;92.90;101258.66;5006529;28;20483;-88
2023/01/01 11:17:03;;;;;;;20.38;3.30;;;;;;;12.08;93.42;101267.47;5001174;28;20395;-88
2023/01/01 11:19:32;;;;;;;23.65;4.20;;;;;;;12.07;96.21;101281.88;4988092;28;20380;-88
2023/01/01 11:21:58;;;;;;;32.17;5.05;;;;;;;12.13;92.60;101269.94;4985902;28;20099;-88
2023/01/01 11:24:26;;;;;;;20.52;5.15;;;;;;;12.07;92.38;101293.91;4983917;28;20059;-90
2023/01/01 11:27:10;;;;;;;20.67;3.13;;;;;;;12.18;91.90;101278.06;4983729;28;20062;-89
2023/01/01 11:29:35;;;;;;;23.65;3.97;;;;;;;12.27;91.80;101300.22;4999452;28;20065;-89